Portada
METAR-TAF:

METAR-TAF

Aeropuertos :

Mafikeng, Sudáfrica

latitud: 25-47S, longitud: 025-32E, altitud: 1281 m

Observación

El informe se hizo hace 46 minutos, a las 05:00 UTC
Viento 2 kt del este-sureste
Temperatura 8°C
Humedad 81%
Presión 1029 hPa
Visibilidad 10 km o más
sin nubes por debajo de 1500 m y sin presencia de cumulonimbus.

METAR: FAMM 200500Z 12002KT CAVOK 08/05 Q1029 NOSIG

Hora: 07:46 (05:46 UTC)

Pronóstico

El informe se hizo hace 2 horas y 46 minutos, a las 03:00 UTC
Pronóstico válido del 20 a las 04 UTC al 20 a las 15 UTC
Viento 3 kt con dirección variable
Visibilidad 10 km o más
sin nubes por debajo de 1500 m y sin presencia de cumulonimbus.

TAF: FAMM 200300Z 2004/2015 VRB03KT CAVOK TX27/2012Z TN08/2004Z

Observaciones y pronósticos meteorológicos de más de 4000 aeropuertos (mensajes METAR y TAF).

Los puntos amarillos y rojos representan las estaciones disponibles.

Ponga el ratón en el punto deseado para ver el nombre de la estación.

Haga clic para ver las observaciones y los pronósticos meteorológicos.

Para cambiar el mapa : haga clic en los botones verdes con una cruz de color negro para hacer un zoom, en el botón verde con un guión para alejar o en las flechas verdes para mapas adyacentes.


METAR-TAF: